Time;durP1;ratioP1;P1;durP2;ratioP2;P2;SDS_P1;SDS_P2;PMS_P1;PMS_P2;Temp;Humidity;BMP_temperature;BMP_pressure;BME280_temperature;BME280_humidity;BME280_pressure;Samples;Min_cycle;Max_cycle;Signal;HPM_P1;HPM_P2
2022/02/14 00:00:23;;;;;;;1.60;1.30;;;9.20;94.30;;;;;;4977561;28;21077;-71
2022/02/14 00:02:51;;;;;;;1.53;1.13;;;9.20;94.50;;;;;;4978571;28;20477;-70
2022/02/14 00:05:19;;;;;;;1.60;1.20;;;9.10;94.60;;;;;;4970243;28;20859;-70
2022/02/14 00:07:45;;;;;;;1.60;1.23;;;9.10;94.60;;;;;;4970471;28;20520;-70
2022/02/14 00:10:12;;;;;;;1.60;1.20;;;9.10;94.80;;;;;;4971159;28;20555;-70
2022/02/14 00:12:41;;;;;;;1.57;1.20;;;9.10;94.70;;;;;;4978590;28;20481;-70
2022/02/14 00:15:09;;;;;;;1.57;1.20;;;9.10;94.90;;;;;;4976404;28;20498;-71
2022/02/14 00:17:36;;;;;;;1.87;1.67;;;9.10;95.00;;;;;;4979495;28;20465;-70
2022/02/14 00:20:04;;;;;;;1.60;1.30;;;9.10;95.00;;;;;;4972019;28;20469;-70
2022/02/14 00:22:32;;;;;;;1.80;1.53;;;9.10;95.20;;;;;;4972582;28;20504;-70
2022/02/14 00:24:59;;;;;;;1.53;1.20;;;9.10;95.20;;;;;;4968750;28;20470;-70
2022/02/14 00:27:25;;;;;;;1.53;1.20;;;9.00;95.30;;;;;;4973027;28;20504;-71
2022/02/14 00:29:52;;;;;;;1.60;1.40;;;9.00;95.30;;;;;;4975535;28;20458;-70
2022/02/14 00:32:20;;;;;;;1.60;1.30;;;9.00;95.20;;;;;;4979961;28;20492;-70
2022/02/14 00:34:47;;;;;;;1.53;1.20;;;9.00;95.30;;;;;;4969752;28;20469;-71
2022/02/14 00:37:14;;;;;;;1.60;1.30;;;9.00;95.60;;;;;;4979920;28;20962;-71
2022/02/14 00:39:42;;;;;;;1.57;1.27;;;9.10;95.60;;;;;;4981757;28;20477;-70
2022/02/14 00:42:09;;;;;;;1.60;1.30;;;9.10;95.60;;;;;;4982709;28;20490;-70
2022/02/14 00:44:36;;;;;;;1.60;1.30;;;9.10;95.80;;;;;;4977154;28;20467;-71
2022/02/14 00:47:03;;;;;;;1.57;1.20;;;9.10;95.80;;;;;;4979071;28;20516;-71
2022/02/14 00:49:30;;;;;;;1.57;1.13;;;9.10;95.80;;;;;;4968883;28;20477;-71
2022/02/14 00:51:57;;;;;;;1.60;1.27;;;9.10;95.70;;;;;;4969204;28;20494;-71
2022/02/14 00:54:24;;;;;;;1.60;1.20;;;9.10;95.90;;;;;;4970727;28;20817;-71
2022/02/14 00:56:52;;;;;;;1.57;1.30;;;9.10;95.80;;;;;;4970725;28;20458;-70
2022/02/14 00:59:19;;;;;;;1.60;1.20;;;9.10;96.00;;;;;;4982353;28;20472;-71
2022/02/14 01:01:45;;;;;;;1.60;1.30;;;9.10;96.10;;;;;;4975829;28;20496;-71
2022/02/14 01:04:14;;;;;;;1.60;1.30;;;9.10;96.30;;;;;;4971188;28;20465;-71
2022/02/14 01:06:41;;;;;;;1.60;1.23;;;9.10;96.20;;;;;;4988665;28;20503;-70
2022/02/14 01:09:08;;;;;;;2.60;2.40;;;9.10;96.40;;;;;;4971557;28;20872;-70
2022/02/14 01:11:35;;;;;;;1.60;1.20;;;9.10;96.20;;;;;;4970278;28;20490;-71
2022/02/14 01:14:04;;;;;;;2.73;2.53;;;9.10;96.20;;;;;;4978512;28;20458;-71
2022/02/14 01:16:30;;;;;;;1.53;1.20;;;9.10;96.40;;;;;;4975929;28;20819;-70
2022/02/14 01:18:57;;;;;;;1.57;1.20;;;9.10;96.30;;;;;;4970703;28;20473;-70
2022/02/14 01:21:24;;;;;;;1.53;1.10;;;9.10;96.70;;;;;;4968093;28;20581;-70
2022/02/14 01:23:51;;;;;;;1.60;1.30;;;9.10;96.80;;;;;;4969705;28;20466;-70
2022/02/14 01:26:17;;;;;;;1.60;1.30;;;9.10;96.90;;;;;;4969170;28;20461;-70
2022/02/14 01:28:44;;;;;;;1.60;1.33;;;9.10;96.80;;;;;;4976154;28;20838;-70
2022/02/14 01:31:12;;;;;;;1.60;1.30;;;9.20;96.70;;;;;;4969554;28;20489;-71
2022/02/14 01:33:39;;;;;;;1.60;1.30;;;9.20;96.70;;;;;;4974377;28;20477;-70
2022/02/14 01:36:06;;;;;;;1.60;1.30;;;9.20;96.90;;;;;;4971780;28;20469;-70
2022/02/14 01:38:33;;;;;;;1.60;1.20;;;9.20;96.90;;;;;;4984973;28;20468;-70
2022/02/14 01:41:00;;;;;;;1.60;1.30;;;9.20;97.10;;;;;;4990279;28;20869;-70
2022/02/14 01:43:26;;;;;;;1.90;1.70;;;9.20;97.20;;;;;;4977934;28;20472;-71
2022/02/14 01:45:53;;;;;;;1.60;1.30;;;9.20;97.20;;;;;;4982817;28;20965;-70
2022/02/14 01:48:21;;;;;;;1.60;1.30;;;9.20;97.20;;;;;;4981384;28;20508;-71
2022/02/14 01:50:49;;;;;;;1.57;1.20;;;9.20;97.20;;;;;;4988491;28;20883;-71
2022/02/14 01:53:16;;;;;;;1.60;1.40;;;9.20;97.30;;;;;;4976013;28;20826;-71
2022/02/14 01:55:43;;;;;;;1.60;1.30;;;9.10;97.50;;;;;;4974179;28;20841;-70
2022/02/14 01:58:11;;;;;;;1.53;1.20;;;9.10;97.50;;;;;;4972138;28;20820;-71
2022/02/14 02:00:38;;;;;;;3.00;2.80;;;9.10;97.50;;;;;;4980020;28;21092;-71
2022/02/14 02:03:04;;;;;;;1.60;1.20;;;9.10;97.50;;;;;;4965308;28;20593;-71
2022/02/14 02:05:32;;;;;;;1.60;1.30;;;9.10;97.40;;;;;;4971962;28;20493;-70
2022/02/14 02:08:00;;;;;;;1.60;1.20;;;9.10;97.30;;;;;;4980624;28;20798;-71
2022/02/14 02:10:27;;;;;;;1.57;1.20;;;9.10;97.30;;;;;;4974189;28;20497;-71
2022/02/14 02:12:55;;;;;;;1.57;1.20;;;9.10;97.50;;;;;;4979931;28;20497;-71
2022/02/14 02:15:22;;;;;;;1.57;1.20;;;9.10;97.50;;;;;;4982106;28;20464;-70
2022/02/14 02:17:49;;;;;;;1.57;1.27;;;9.10;97.70;;;;;;4972062;28;20490;-70
2022/02/14 02:20:18;;;;;;;1.50;1.20;;;9.10;97.80;;;;;;4979351;28;20472;-70
2022/02/14 02:22:48;;;;;;;1.57;1.27;;;9.20;97.70;;;;;;4983141;28;20513;-71
2022/02/14 02:25:17;;;;;;;1.57;1.20;;;9.20;97.70;;;;;;4981319;28;20473;-70
2022/02/14 02:27:44;;;;;;;1.60;1.20;;;9.20;97.80;;;;;;4986713;28;20497;-71
2022/02/14 02:30:13;;;;;;;1.60;1.30;;;9.20;97.60;;;;;;4975467;28;20480;-70
2022/02/14 02:32:40;;;;;;;1.60;1.20;;;9.20;97.50;;;;;;4980440;28;20641;-71
2022/02/14 02:35:08;;;;;;;1.57;1.30;;;9.20;97.70;;;;;;4976890;28;20485;-70
2022/02/14 02:37:35;;;;;;;1.60;1.30;;;9.20;97.70;;;;;;4971831;28;20470;-70
2022/02/14 02:40:03;;;;;;;1.57;1.20;;;9.20;97.50;;;;;;4976941;28;20997;-71
2022/02/14 02:42:31;;;;;;;1.57;1.20;;;9.20;97.50;;;;;;4971706;28;20498;-70
2022/02/14 02:44:58;;;;;;;1.60;1.23;;;9.20;97.60;;;;;;4975964;28;20818;-71
2022/02/14 02:47:26;;;;;;;1.57;1.20;;;9.20;97.60;;;;;;4972318;28;20593;-70
2022/02/14 02:49:53;;;;;;;1.60;1.30;;;9.20;97.70;;;;;;4970113;28;20864;-71
2022/02/14 02:52:21;;;;;;;1.60;1.20;;;9.20;97.80;;;;;;4979401;28;20488;-70
2022/02/14 02:54:48;;;;;;;1.60;1.20;;;9.20;98.00;;;;;;4981844;28;20540;-71
2022/02/14 02:57:16;;;;;;;1.53;1.20;;;9.20;98.10;;;;;;4973545;28;20469;-71
2022/02/14 02:59:44;;;;;;;14.23;2.60;;;9.10;98.20;;;;;;4973237;28;20842;-71
2022/02/14 03:02:12;;;;;;;1.60;1.20;;;9.20;97.90;;;;;;4970803;28;21133;-71
2022/02/14 03:04:39;;;;;;;1.60;1.23;;;9.20;98.00;;;;;;4982152;28;20984;-70
2022/02/14 03:07:06;;;;;;;1.60;1.20;;;9.20;97.60;;;;;;4981648;28;20481;-70
2022/02/14 03:09:33;;;;;;;1.60;1.40;;;9.20;97.50;;;;;;4970868;28;20917;-71
2022/02/14 03:12:00;;;;;;;1.60;1.30;;;9.20;97.30;;;;;;4972121;28;20481;-71
2022/02/14 03:14:26;;;;;;;1.57;1.20;;;9.20;97.20;;;;;;4977412;28;20953;-71
2022/02/14 03:16:54;;;;;;;1.60;1.23;;;9.20;97.10;;;;;;4988727;28;20465;-70
2022/02/14 03:19:22;;;;;;;1.60;1.23;;;9.20;97.00;;;;;;4987226;28;20465;-72
2022/02/14 03:21:49;;;;;;;1.60;1.20;;;9.30;97.00;;;;;;4970507;28;20494;-70
2022/02/14 03:24:15;;;;;;;1.60;1.27;;;9.30;97.10;;;;;;4970245;28;20473;-70
2022/02/14 03:26:42;;;;;;;1.57;1.20;;;9.30;97.20;;;;;;4976805;28;20477;-71
2022/02/14 03:29:11;;;;;;;1.57;1.20;;;9.30;97.30;;;;;;4981215;28;20485;-70
2022/02/14 03:31:38;;;;;;;1.53;1.20;;;9.20;97.50;;;;;;4973400;28;20494;-70
2022/02/14 03:34:07;;;;;;;1.57;1.20;;;9.30;97.20;;;;;;4983441;28;20468;-71
2022/02/14 03:36:34;;;;;;;1.60;1.20;;;9.30;97.10;;;;;;4971010;28;20557;-70
2022/02/14 03:39:01;;;;;;;2.70;2.50;;;9.30;97.10;;;;;;4987412;28;20488;-70
2022/02/14 03:41:28;;;;;;;1.60;1.20;;;9.40;97.20;;;;;;4986848;28;20484;-70
2022/02/14 03:43:54;;;;;;;1.60;1.20;;;9.40;96.70;;;;;;4989077;28;20468;-70
2022/02/14 03:46:21;;;;;;;1.60;1.30;;;9.50;97.10;;;;;;4991664;28;20460;-70
2022/02/14 03:48:48;;;;;;;1.53;1.10;;;9.50;97.20;;;;;;4970852;28;20574;-70
2022/02/14 03:51:16;;;;;;;1.60;1.20;;;9.50;97.30;;;;;;4972692;28;20598;-70
2022/02/14 03:53:43;;;;;;;1.60;1.27;;;9.50;97.00;;;;;;4971581;28;20862;-70
2022/02/14 03:56:09;;;;;;;1.57;1.23;;;9.40;97.10;;;;;;4968224;28;20470;-70
2022/02/14 03:58:36;;;;;;;1.60;1.40;;;9.50;96.80;;;;;;4978336;28;20465;-70
2022/02/14 04:01:03;;;;;;;1.60;1.20;;;9.50;96.30;;;;;;4979677;28;20482;-70
2022/02/14 04:03:30;;;;;;;1.57;1.20;;;9.50;95.90;;;;;;4978050;28;20833;-70
2022/02/14 04:05:57;;;;;;;1.60;1.20;;;9.60;95.70;;;;;;4979438;28;20469;-70
2022/02/14 04:08:25;;;;;;;1.57;1.20;;;9.50;95.70;;;;;;4969422;28;20494;-70
2022/02/14 04:10:53;;;;;;;1.60;1.27;;;9.60;95.70;;;;;;4984631;28;20845;-70
2022/02/14 04:13:20;;;;;;;1.57;1.20;;;9.60;95.80;;;;;;4971741;28;20466;-70
2022/02/14 04:15:47;;;;;;;1.53;1.17;;;9.60;95.90;;;;;;4979776;28;20473;-70
2022/02/14 04:18:14;;;;;;;1.53;1.20;;;9.60;96.60;;;;;;4987733;28;20465;-70
2022/02/14 04:20:41;;;;;;;1.53;1.10;;;9.50;96.70;;;;;;4981630;28;20468;-70
2022/02/14 04:23:08;;;;;;;1.53;1.10;;;9.50;96.60;;;;;;4988587;28;20472;-70
2022/02/14 04:25:36;;;;;;;3.87;3.63;;;9.50;96.50;;;;;;4983055;28;20466;-70
2022/02/14 04:28:22;;;;;;;1.57;1.20;;;9.40;96.70;;;;;;5066621;27;20985;-70
2022/02/14 04:30:48;;;;;;;1.60;1.27;;;9.40;96.70;;;;;;5064861;28;20469;-71
2022/02/14 04:33:15;;;;;;;3.33;3.03;;;9.40;96.60;;;;;;5067983;28;20519;-70
2022/02/14 04:35:43;;;;;;;1.60;1.30;;;9.40;96.80;;;;;;5066545;28;20450;-71
2022/02/14 04:38:09;;;;;;;1.60;1.30;;;9.40;96.90;;;;;;5065243;28;20536;-71
2022/02/14 04:40:39;;;;;;;1.53;1.20;;;9.40;96.90;;;;;;5067565;28;20457;-71
2022/02/14 04:43:07;;;;;;;1.60;1.20;;;9.40;96.80;;;;;;5062909;28;20880;-71
2022/02/14 04:45:35;;;;;;;1.57;1.10;;;9.40;97.00;;;;;;5063308;28;20464;-71
2022/02/14 04:48:02;;;;;;;1.57;1.20;;;9.40;97.20;;;;;;5062799;28;20482;-71
2022/02/14 04:50:29;;;;;;;1.60;1.20;;;9.40;97.20;;;;;;5057043;28;20507;-71
2022/02/14 04:52:56;;;;;;;1.60;1.20;;;9.40;97.60;;;;;;5061804;28;20469;-71
2022/02/14 04:55:23;;;;;;;1.60;1.30;;;9.40;97.60;;;;;;5064062;28;20468;-70
2022/02/14 04:57:50;;;;;;;1.70;1.60;;;9.40;97.80;;;;;;5065834;28;20535;-70
2022/02/14 05:00:18;;;;;;;1.57;1.20;;;9.40;97.90;;;;;;5057854;28;20458;-70
2022/02/14 05:02:46;;;;;;;1.60;1.30;;;9.40;97.80;;;;;;5062844;28;20485;-70
2022/02/14 05:05:13;;;;;;;1.60;1.20;;;9.40;98.00;;;;;;5063849;28;20962;-70
2022/02/14 05:07:42;;;;;;;1.60;1.20;;;9.40;98.00;;;;;;5062330;28;21000;-71
2022/02/14 05:10:10;;;;;;;1.50;1.20;;;9.40;98.20;;;;;;5061717;28;20493;-70
2022/02/14 05:12:37;;;;;;;1.57;1.13;;;9.40;98.20;;;;;;5060618;28;20486;-70
2022/02/14 05:15:05;;;;;;;1.53;1.20;;;9.50;98.20;;;;;;5063739;28;20465;-70
2022/02/14 05:17:32;;;;;;;1.53;1.20;;;9.50;98.20;;;;;;5064328;28;20457;-70
2022/02/14 05:20:00;;;;;;;1.60;1.40;;;9.60;98.20;;;;;;5062053;28;20965;-70
2022/02/14 05:22:27;;;;;;;1.60;1.30;;;9.60;98.20;;;;;;5062214;28;20993;-70
2022/02/14 05:24:54;;;;;;;1.60;1.20;;;9.60;97.90;;;;;;5062219;28;20539;-71
2022/02/14 05:27:20;;;;;;;1.60;1.30;;;9.60;98.20;;;;;;5062875;28;20493;-70
2022/02/14 05:29:47;;;;;;;1.60;1.30;;;9.50;98.00;;;;;;5062478;28;20472;-70
2022/02/14 05:32:14;;;;;;;1.60;1.20;;;9.50;98.20;;;;;;5061985;28;20980;-70
2022/02/14 05:34:41;;;;;;;1.60;1.30;;;9.50;98.20;;;;;;5062579;28;20461;-70
2022/02/14 05:37:09;;;;;;;1.60;1.23;;;9.50;98.20;;;;;;5062703;28;20469;-71
2022/02/14 05:39:36;;;;;;;1.57;1.10;;;9.60;98.20;;;;;;5048987;28;20472;-70
2022/02/14 05:42:03;;;;;;;1.50;1.20;;;9.60;98.20;;;;;;5049515;28;20523;-70
2022/02/14 05:44:30;;;;;;;1.60;1.20;;;9.60;98.20;;;;;;5049904;28;20974;-70
2022/02/14 05:46:57;;;;;;;1.60;1.17;;;9.60;98.20;;;;;;5049987;28;20493;-70
2022/02/14 05:49:23;;;;;;;1.50;1.10;;;9.70;98.20;;;;;;5048291;28;20858;-70
2022/02/14 05:51:50;;;;;;;1.60;1.10;;;9.70;98.20;;;;;;5048967;28;20489;-70
2022/02/14 05:54:18;;;;;;;1.57;1.10;;;9.70;98.20;;;;;;5049070;28;20848;-70
2022/02/14 05:56:45;;;;;;;1.57;1.20;;;9.70;98.20;;;;;;5050152;28;20462;-70
2022/02/14 05:59:12;;;;;;;1.60;1.30;;;9.70;98.20;;;;;;5048769;28;20835;-70
2022/02/14 06:01:39;;;;;;;3.53;3.33;;;9.60;98.20;;;;;;5046627;28;20497;-71
2022/02/14 06:04:05;;;;;;;1.53;1.20;;;9.60;98.20;;;;;;5048144;28;20465;-71
2022/02/14 06:06:32;;;;;;;1.60;1.30;;;9.50;98.20;;;;;;5049244;28;20470;-70
2022/02/14 06:08:59;;;;;;;1.60;1.20;;;9.50;98.20;;;;;;5049763;28;20470;-70
2022/02/14 06:11:27;;;;;;;1.57;1.20;;;9.40;98.20;;;;;;5047538;28;20562;-70
2022/02/14 06:13:54;;;;;;;1.57;1.20;;;9.30;98.20;;;;;;5048953;28;20459;-70
2022/02/14 06:16:20;;;;;;;1.57;1.20;;;9.30;98.20;;;;;;5049105;28;20477;-70
2022/02/14 06:18:47;;;;;;;1.53;1.20;;;9.20;98.20;;;;;;5049620;28;20469;-70
2022/02/14 06:21:14;;;;;;;1.60;1.20;;;9.20;98.20;;;;;;5046958;28;21002;-70
2022/02/14 06:23:42;;;;;;;1.60;1.20;;;9.20;98.20;;;;;;5044926;28;20462;-70
2022/02/14 06:26:08;;;;;;;1.50;1.20;;;9.10;98.20;;;;;;5044771;28;20462;-71
2022/02/14 06:28:40;;;;;;;1.57;1.20;;;9.10;98.20;;;;;;5047203;28;20486;-71
2022/02/14 06:31:09;;;;;;;1.60;1.20;;;9.10;98.20;;;;;;5046113;28;20801;-71
2022/02/14 06:33:37;;;;;;;1.53;1.20;;;9.10;98.20;;;;;;5044665;28;20470;-70
2022/02/14 06:36:05;;;;;;;2.30;1.70;;;9.00;98.20;;;;;;5047294;28;20825;-70
2022/02/14 06:38:33;;;;;;;1.60;1.40;;;9.00;98.20;;;;;;5047060;28;20803;-71
2022/02/14 06:41:00;;;;;;;1.50;1.20;;;9.00;98.20;;;;;;5048057;28;20478;-70
2022/02/14 06:43:27;;;;;;;1.57;1.20;;;9.00;98.20;;;;;;5043514;28;20478;-70
2022/02/14 06:45:55;;;;;;;1.50;1.20;;;9.00;98.20;;;;;;5044426;28;20557;-70
2022/02/14 06:48:22;;;;;;;1.60;1.20;;;9.00;98.20;;;;;;5047202;28;20513;-70
2022/02/14 06:50:49;;;;;;;1.57;1.20;;;9.00;98.20;;;;;;5044690;28;20470;-69
2022/02/14 06:53:15;;;;;;;1.57;1.20;;;9.00;98.20;;;;;;5048489;28;20462;-69
2022/02/14 06:55:42;;;;;;;1.57;1.20;;;9.10;98.20;;;;;;5047353;28;20510;-69
2022/02/14 06:58:09;;;;;;;1.60;1.23;;;9.10;98.20;;;;;;5048613;28;20462;-69
2022/02/14 07:00:36;;;;;;;1.53;1.20;;;9.10;98.20;;;;;;5044432;28;20484;-70
2022/02/14 07:03:06;;;;;;;1.60;1.30;;;9.20;98.20;;;;;;5045812;28;20921;-70
2022/02/14 07:05:33;;;;;;;1.60;1.30;;;9.20;98.20;;;;;;5042099;28;20540;-70
2022/02/14 07:07:59;;;;;;;1.60;1.20;;;9.20;98.20;;;;;;5045874;28;20486;-70
2022/02/14 07:10:26;;;;;;;1.60;1.20;;;9.30;98.20;;;;;;5042758;28;20462;-69
2022/02/14 07:12:53;;;;;;;1.60;1.23;;;9.30;98.20;;;;;;5042688;28;20764;-70
2022/02/14 07:15:21;;;;;;;1.53;1.20;;;9.40;98.20;;;;;;5045255;28;20469;-68
2022/02/14 07:17:49;;;;;;;1.60;1.30;;;9.50;98.20;;;;;;5041177;28;20520;-70
2022/02/14 07:20:19;;;;;;;1.57;1.20;;;9.50;98.20;;;;;;5037598;28;20958;-69
2022/02/14 07:22:46;;;;;;;1.50;1.10;;;9.50;98.20;;;;;;5039552;28;20486;-69
2022/02/14 07:25:13;;;;;;;4.17;3.77;;;9.60;98.20;;;;;;5042083;28;20673;-70
2022/02/14 07:27:40;;;;;;;1.60;1.20;;;9.70;98.20;;;;;;5046349;28;20478;-69
2022/02/14 07:30:09;;;;;;;1.57;1.20;;;9.70;98.20;;;;;;5045538;28;20845;-70
2022/02/14 07:32:37;;;;;;;1.57;1.20;;;9.80;98.20;;;;;;5046061;28;20511;-70
2022/02/14 07:35:04;;;;;;;1.60;1.10;;;9.90;98.20;;;;;;5047609;28;20459;-69
2022/02/14 07:37:33;;;;;;;1.60;1.20;;;10.00;98.20;;;;;;5040962;28;20787;-69
2022/02/14 07:39:59;;;;;;;1.60;1.20;;;10.00;98.20;;;;;;5044488;28;20494;-69
2022/02/14 07:42:27;;;;;;;1.57;1.20;;;10.10;98.20;;;;;;5045901;28;20473;-69
2022/02/14 07:44:54;;;;;;;1.57;1.20;;;10.20;98.20;;;;;;5044506;28;20979;-69
2022/02/14 07:47:21;;;;;;;1.60;1.20;;;10.30;98.20;;;;;;5045649;28;20490;-69
2022/02/14 07:49:48;;;;;;;1.60;1.20;;;10.30;98.20;;;;;;5040495;28;20474;-70
2022/02/14 07:52:15;;;;;;;1.53;1.10;;;10.40;98.20;;;;;;5044727;28;20489;-70
2022/02/14 07:54:43;;;;;;;1.53;1.20;;;10.40;98.20;;;;;;5044543;28;20555;-70
2022/02/14 07:57:10;;;;;;;1.60;1.20;;;10.50;98.20;;;;;;5048507;28;20469;-69
2022/02/14 07:59:37;;;;;;;1.60;1.20;;;10.60;98.20;;;;;;5043734;28;20462;-70
2022/02/14 08:02:04;;;;;;;1.60;1.20;;;10.60;98.20;;;;;;5044954;28;20566;-71
2022/02/14 08:04:30;;;;;;;1.60;1.20;;;10.70;98.20;;;;;;5046649;28;20462;-69
2022/02/14 08:06:57;;;;;;;2.17;1.97;;;10.70;98.20;;;;;;5047812;28;20476;-70
2022/02/14 08:09:24;;;;;;;1.57;1.20;;;10.70;98.20;;;;;;5037775;28;20474;-69
2022/02/14 08:11:56;;;;;;;1.50;1.10;;;10.80;98.20;;;;;;5042536;28;20502;-70
2022/02/14 08:14:24;;;;;;;1.50;1.10;;;10.80;98.20;;;;;;5046624;28;20553;-70
2022/02/14 08:16:51;;;;;;;1.57;1.10;;;10.90;98.20;;;;;;5046562;28;20462;-71
2022/02/14 08:19:17;;;;;;;1.60;1.20;;;10.90;98.20;;;;;;5046309;28;20476;-69
2022/02/14 08:21:44;;;;;;;1.60;1.10;;;10.90;98.20;;;;;;5044124;28;20781;-69
2022/02/14 08:24:11;;;;;;;1.60;1.10;;;11.00;98.20;;;;;;5046977;28;20459;-69
2022/02/14 08:26:39;;;;;;;1.60;1.13;;;11.00;98.20;;;;;;5047759;28;20574;-69
2022/02/14 08:29:07;;;;;;;1.60;1.30;;;11.10;98.20;;;;;;5046619;28;20517;-69
2022/02/14 08:31:34;;;;;;;1.60;1.10;;;11.10;98.20;;;;;;5045077;28;20532;-69
2022/02/14 08:34:03;;;;;;;1.60;1.10;;;11.20;98.20;;;;;;5045261;28;20455;-69
2022/02/14 08:36:30;;;;;;;1.57;1.10;;;11.30;98.20;;;;;;5046863;28;20466;-69
2022/02/14 08:38:58;;;;;;;1.60;1.30;;;11.40;98.20;;;;;;5046796;28;20466;-69
2022/02/14 08:41:25;;;;;;;1.57;1.13;;;11.50;98.20;;;;;;5043595;28;20858;-69
2022/02/14 08:43:52;;;;;;;1.60;1.20;;;11.50;98.20;;;;;;5044352;28;20951;-69
2022/02/14 08:46:21;;;;;;;1.60;1.10;;;11.60;98.20;;;;;;5044872;28;20961;-69
2022/02/14 08:48:48;;;;;;;1.60;1.20;;;11.70;98.20;;;;;;5046591;28;20482;-69
2022/02/14 08:51:15;;;;;;;1.60;1.10;;;11.80;98.20;;;;;;5044569;28;20866;-69
2022/02/14 08:53:42;;;;;;;1.60;1.10;;;11.90;98.20;;;;;;5047295;28;20465;-69
2022/02/14 08:56:09;;;;;;;1.60;1.10;;;12.00;98.20;;;;;;5046108;28;20462;-70
2022/02/14 08:58:37;;;;;;;1.60;1.20;;;12.00;98.20;;;;;;5047949;28;20833;-70
2022/02/14 09:01:04;;;;;;;1.57;1.00;;;12.00;98.20;;;;;;5044333;28;20481;-70
2022/02/14 09:03:33;;;;;;;1.60;1.00;;;12.10;98.20;;;;;;5045703;28;20473;-69
2022/02/14 09:06:00;;;;;;;1.60;1.10;;;12.10;98.20;;;;;;5045446;28;20855;-69
2022/02/14 09:08:27;;;;;;;1.60;1.10;;;12.20;98.20;;;;;;5044484;28;21001;-69
2022/02/14 09:10:55;;;;;;;1.60;1.20;;;12.20;98.20;;;;;;5045220;28;20588;-70
2022/02/14 09:13:22;;;;;;;1.60;1.10;;;12.30;98.20;;;;;;5045189;28;21087;-69
2022/02/14 09:15:49;;;;;;;1.60;1.03;;;12.40;98.20;;;;;;5049785;28;20458;-69
2022/02/14 09:18:16;;;;;;;1.60;1.00;;;12.40;98.20;;;;;;5051657;28;20469;-71
2022/02/14 09:20:44;;;;;;;1.60;1.10;;;12.40;98.20;;;;;;5050395;28;20458;-71
2022/02/14 09:23:12;;;;;;;1.60;1.10;;;12.40;98.20;;;;;;5049707;28;20946;-71
2022/02/14 09:25:40;;;;;;;1.60;1.30;;;12.30;98.20;;;;;;5049404;28;20462;-71
2022/02/14 09:28:07;;;;;;;1.70;1.53;;;12.30;98.20;;;;;;5052266;28;20560;-70
2022/02/14 09:30:34;;;;;;;1.60;1.00;;;12.30;98.20;;;;;;5047806;28;20485;-71
2022/02/14 09:33:01;;;;;;;1.60;1.10;;;12.30;98.20;;;;;;5048710;28;20486;-71
2022/02/14 09:35:28;;;;;;;1.60;1.00;;;12.30;98.20;;;;;;5050299;28;20560;-71
2022/02/14 09:37:58;;;;;;;1.57;1.10;;;12.40;98.20;;;;;;5050095;28;20839;-71
2022/02/14 09:40:27;;;;;;;1.60;1.10;;;12.40;98.20;;;;;;5049199;28;20473;-71
2022/02/14 09:42:55;;;;;;;1.53;1.10;;;12.50;98.20;;;;;;5048814;28;20485;-71
2022/02/14 09:45:23;;;;;;;1.57;1.10;;;12.50;98.20;;;;;;5048149;28;20477;-72
2022/02/14 09:47:55;;;;;;;1.60;1.10;;;12.40;98.20;;;;;;5050531;28;20478;-71
2022/02/14 09:50:22;;;;;;;1.60;1.10;;;12.40;98.20;;;;;;5048982;28;20943;-71
2022/02/14 09:52:49;;;;;;;1.57;1.00;;;12.40;98.20;;;;;;5049134;28;20568;-71
2022/02/14 09:55:18;;;;;;;1.60;1.03;;;12.40;98.20;;;;;;5049779;28;20469;-71
2022/02/14 09:57:44;;;;;;;1.57;1.10;;;12.40;98.20;;;;;;5049824;28;20454;-71
2022/02/14 10:00:12;;;;;;;1.53;1.00;;;12.40;98.20;;;;;;5048084;28;20466;-71
2022/02/14 10:02:39;;;;;;;1.57;1.07;;;12.40;98.20;;;;;;5049180;28;20521;-71
2022/02/14 10:05:09;;;;;;;1.53;1.00;;;12.40;98.20;;;;;;5045398;28;20501;-71
2022/02/14 10:07:41;;;;;;;1.50;1.00;;;12.40;98.20;;;;;;5047965;28;20477;-71
2022/02/14 10:10:11;;;;;;;1.57;1.00;;;12.40;98.20;;;;;;5048948;28;20462;-71
2022/02/14 10:12:45;;;;;;;1.53;1.00;;;12.40;98.20;;;;;;5048412;28;20483;-70
2022/02/14 10:15:13;;;;;;;1.60;1.10;;;12.30;98.20;;;;;;5044615;28;20457;-71
2022/02/14 10:17:43;;;;;;;1.53;1.00;;;12.30;98.20;;;;;;5049107;28;20466;-71
2022/02/14 10:20:11;;;;;;;1.57;1.10;;;12.30;98.20;;;;;;5049266;28;20473;-70
2022/02/14 10:22:55;;;;;;;1.60;1.10;;;12.30;98.20;;;;;;5048144;28;20482;-71
2022/02/14 10:25:30;;;;;;;1.60;1.20;;;12.20;98.20;;;;;;5049460;28;20466;-71
2022/02/14 10:28:17;;;;;;;1.60;1.10;;;12.20;98.20;;;;;;5054728;28;20462;-70
2022/02/14 10:31:02;;;;;;;1.53;1.00;;;12.20;98.20;;;;;;5044524;28;20969;-71
2022/02/14 10:33:50;;;;;;;1.57;1.00;;;12.30;98.20;;;;;;5047444;28;20856;-71
2022/02/14 10:36:28;;;;;;;1.57;1.00;;;12.30;98.20;;;;;;5046322;28;20454;-71
2022/02/14 10:38:55;;;;;;;1.60;1.10;;;12.50;98.20;;;;;;5048858;28;21165;-71
2022/02/14 10:41:22;;;;;;;1.60;1.07;;;12.80;98.20;;;;;;5048609;28;20478;-71
2022/02/14 10:43:50;;;;;;;1.57;1.00;;;13.10;98.20;;;;;;5049291;28;20635;-71
2022/02/14 10:46:22;;;;;;;1.60;1.10;;;13.30;97.60;;;;;;5049072;28;20488;-70
2022/02/14 10:48:54;;;;;;;1.57;1.10;;;13.20;95.60;;;;;;5045197;28;20491;-71
2022/02/14 10:51:21;;;;;;;1.60;1.00;;;13.00;96.30;;;;;;5042146;28;20478;-72
2022/02/14 10:53:49;;;;;;;1.60;1.07;;;12.80;96.40;;;;;;5049045;28;20864;-71
2022/02/14 10:56:18;;;;;;;1.60;1.00;;;12.70;96.20;;;;;;5049316;28;20462;-71
2022/02/14 10:58:46;;;;;;;1.60;1.10;;;12.60;96.30;;;;;;5047898;28;20557;-71
2022/02/14 11:01:15;;;;;;;1.60;1.10;;;12.60;96.10;;;;;;5048622;28;20474;-71
2022/02/14 11:03:43;;;;;;;1.60;1.10;;;12.60;95.80;;;;;;5047742;28;20554;-71
2022/02/14 11:06:11;;;;;;;1.53;1.00;;;12.90;95.40;;;;;;5046131;28;20496;-71
2022/02/14 11:08:39;;;;;;;1.60;1.13;;;13.10;94.50;;;;;;5048495;28;20577;-71
2022/02/14 11:11:07;;;;;;;1.57;1.00;;;13.20;94.30;;;;;;5048269;28;21020;-71
2022/02/14 11:13:34;;;;;;;1.53;1.10;;;13.30;94.50;;;;;;5048163;28;20459;-71
2022/02/14 11:16:03;;;;;;;1.60;1.10;;;13.20;94.20;;;;;;5048367;28;20841;-71
2022/02/14 11:18:34;;;;;;;1.53;1.00;;;13.10;94.20;;;;;;5049177;28;20502;-71
2022/02/14 11:21:02;;;;;;;1.57;1.10;;;13.00;93.90;;;;;;5048800;28;20489;-71
2022/02/14 11:23:34;;;;;;;1.60;1.10;;;12.80;94.30;;;;;;5047542;28;21094;-72
2022/02/14 11:26:07;;;;;;;1.60;1.00;;;12.70;95.40;;;;;;5047697;28;20478;-71
2022/02/14 11:28:40;;;;;;;1.57;1.00;;;12.80;95.30;;;;;;5043805;28;20477;-71
2022/02/14 11:31:09;;;;;;;1.60;1.10;;;12.90;95.50;;;;;;5051399;28;21091;-71
2022/02/14 11:33:41;;;;;;;1.60;1.10;;;12.80;95.10;;;;;;5044586;28;20473;-70
2022/02/14 11:36:09;;;;;;;1.53;1.03;;;12.70;95.40;;;;;;5047774;28;20473;-71
2022/02/14 11:38:47;;;;;;;1.57;1.10;;;12.70;95.50;;;;;;5047943;28;20462;-71
2022/02/14 11:41:28;;;;;;;1.60;1.10;;;12.60;95.80;;;;;;5047884;28;20569;-71
2022/02/14 11:43:56;;;;;;;1.60;1.17;;;12.80;96.80;;;;;;5048353;28;20462;-71
2022/02/14 11:46:27;;;;;;;1.60;1.10;;;13.10;95.40;;;;;;5047933;28;20502;-70
2022/02/14 11:49:16;;;;;;;1.60;1.10;;;13.30;95.20;;;;;;5047932;28;20494;-71
2022/02/14 11:51:45;;;;;;;1.60;1.00;;;13.60;94.40;;;;;;5045071;28;20886;-71
2022/02/14 11:54:32;;;;;;;1.60;1.00;;;14.00;93.50;;;;;;5045617;28;20470;-72
2022/02/14 11:57:26;;;;;;;1.60;1.10;;;14.20;91.70;;;;;;5046928;28;20458;-71
2022/02/14 12:00:14;;;;;;;1.60;1.10;;;14.40;91.30;;;;;;5045013;28;20455;-71
2022/02/14 12:02:42;;;;;;;1.60;1.10;;;14.40;90.90;;;;;;5046336;28;20478;-71
2022/02/14 12:05:11;;;;;;;1.60;1.00;;;14.20;90.30;;;;;;5046866;28;21029;-71
2022/02/14 12:07:41;;;;;;;1.80;1.47;;;14.10;90.70;;;;;;5047546;28;20969;-71
2022/02/14 12:10:15;;;;;;;1.57;1.00;;;13.90;91.20;;;;;;5046474;28;20489;-71
2022/02/14 12:13:10;;;;;;;1.60;1.10;;;13.80;91.40;;;;;;5046592;28;20485;-72
2022/02/14 12:21:26;;;;;;;1.57;1.00;;;13.50;91.90;;;;;;5040388;28;20480;-71
2022/02/14 12:23:56;;;;;;;1.60;1.00;;;13.40;91.30;;;;;;5042239;28;20478;-71
2022/02/14 12:26:26;;;;;;;1.60;1.10;;;13.30;91.50;;;;;;5040693;28;20466;-71
2022/02/14 12:31:41;;;;;;;1.60;1.10;;;13.00;91.90;;;;;;5038842;28;20501;-71
2022/02/14 12:34:08;;;;;;;1.53;1.00;;;13.00;92.40;;;;;;5043138;28;20467;-71
2022/02/14 12:36:36;;;;;;;1.57;1.10;;;13.10;92.60;;;;;;5042462;28;20469;-71
2022/02/14 12:39:03;;;;;;;1.60;1.23;;;13.30;91.90;;;;;;5042640;28;20810;-71
2022/02/14 12:41:30;;;;;;;1.53;1.00;;;13.40;91.10;;;;;;5045487;28;20517;-71
2022/02/14 12:43:57;;;;;;;1.57;1.10;;;13.40;90.20;;;;;;5045076;28;20503;-71
2022/02/14 12:46:25;;;;;;;1.60;1.10;;;13.40;91.00;;;;;;5044734;28;20450;-71
2022/02/14 12:48:55;;;;;;;1.50;1.00;;;13.50;91.10;;;;;;5044186;28;20863;-71
2022/02/14 12:51:24;;;;;;;1.60;1.10;;;13.60;90.60;;;;;;5048450;28;21002;-72
2022/02/14 12:53:54;;;;;;;1.60;1.00;;;13.80;90.30;;;;;;5049826;28;20938;-72
2022/02/14 12:56:23;;;;;;;1.53;1.00;;;13.80;89.80;;;;;;5050159;28;20469;-71
2022/02/14 12:58:52;;;;;;;1.53;1.00;;;13.80;89.90;;;;;;5047589;28;20508;-71
2022/02/14 13:01:19;;;;;;;1.60;1.00;;;13.90;90.30;;;;;;5048307;28;20534;-71
2022/02/14 13:03:54;;;;;;;1.53;1.00;;;14.00;90.30;;;;;;5042877;28;20470;-71
2022/02/14 13:06:21;;;;;;;2.33;2.13;;;14.10;90.20;;;;;;5049080;28;20573;-71